createdAt,value
2018-06-17T00:00:46.780Z,99846.47
2018-06-17T00:03:14.371Z,99850.02
2018-06-17T00:05:43.425Z,99851.38
2018-06-17T00:08:11.302Z,99860.16
2018-06-17T00:10:38.890Z,99860.16
2018-06-17T00:13:06.479Z,99859.98
2018-06-17T00:15:34.388Z,99859.48
2018-06-17T00:18:01.987Z,99862.69
2018-06-17T00:20:29.579Z,99861.02
2018-06-17T00:22:57.485Z,99860.16
2018-06-17T00:25:25.114Z,99861.19
2018-06-17T00:27:52.690Z,99865.23
2018-06-17T00:30:20.543Z,99863.77
2018-06-17T00:32:48.152Z,99866.97
2018-06-17T00:35:15.740Z,99864.27
2018-06-17T00:37:43.606Z,99867.99
2018-06-17T00:40:11.250Z,99862.27
2018-06-17T00:42:38.850Z,99866.49
2018-06-17T00:45:06.694Z,99875.62
2018-06-17T00:47:34.301Z,99872.77
2018-06-17T00:50:03.309Z,99872.45
2018-06-17T00:52:31.182Z,99873.97
2018-06-17T00:54:58.755Z,99873.49
2018-06-17T00:57:26.328Z,99872.34
2018-06-17T00:59:54.199Z,99872.52
2018-06-17T01:02:21.804Z,99868.48
2018-06-17T01:04:49.384Z,99874.91
2018-06-17T01:07:17.256Z,99873.08
2018-06-17T01:09:44.891Z,99872.60
2018-06-17T01:12:12.466Z,99871.30
2018-06-17T01:14:40.546Z,99877.38
2018-06-17T01:17:08.152Z,99877.05
2018-06-17T01:19:35.766Z,99871.31
2018-06-17T01:22:03.886Z,99880.45
2018-06-17T01:24:31.523Z,99877.09
2018-06-17T01:26:59.118Z,99879.97
2018-06-17T01:29:27.017Z,99883.36
2018-06-17T01:31:54.631Z,99881.86
2018-06-17T01:34:23.326Z,99875.80
2018-06-17T01:36:51.226Z,99885.92
2018-06-17T01:39:18.816Z,99888.14
2018-06-17T01:41:46.413Z,99888.67
2018-06-17T01:44:14.299Z,99893.09
2018-06-17T01:46:41.886Z,99892.44
2018-06-17T01:49:09.534Z,99889.58
2018-06-17T01:51:38.384Z,99888.90
2018-06-17T01:54:06.826Z,99884.86
2018-06-17T01:56:34.409Z,99883.55
2018-06-17T01:59:01.996Z,99888.78
2018-06-17T02:01:29.858Z,99889.65
2018-06-17T02:04:02.395Z,99883.43
2018-06-17T02:06:36.067Z,99886.14
2018-06-17T02:09:08.658Z,99890.35
2018-06-17T02:12:38.382Z,99891.41
2018-06-17T02:15:06.300Z,99888.22
2018-06-17T02:17:34.713Z,99891.98
2018-06-17T02:20:02.308Z,99901.75
2018-06-17T02:22:29.880Z,99890.99
2018-06-17T02:24:58.359Z,99887.47
2018-06-17T02:27:27.126Z,99888.83
2018-06-17T02:29:54.691Z,99890.01
2018-06-17T02:32:22.559Z,99893.06
2018-06-17T02:34:50.174Z,99898.30
2018-06-17T02:37:17.766Z,99895.80
2018-06-17T02:39:45.349Z,99894.44
2018-06-17T02:42:13.746Z,99897.99
2018-06-17T02:44:41.367Z,99907.42
2018-06-17T02:47:13.996Z,99907.26
2018-06-17T02:49:41.848Z,99911.33
2018-06-17T02:52:14.369Z,99906.91
2018-06-17T02:54:47.799Z,99917.53
2018-06-17T02:57:16.528Z,99911.65
2018-06-17T02:59:44.967Z,99908.29
2018-06-17T03:02:12.964Z,99912.16
2018-06-17T03:04:40.557Z,99903.25
2018-06-17T03:07:08.399Z,99906.62
2018-06-17T03:09:35.989Z,99910.83
2018-06-17T03:12:03.554Z,99912.01
2018-06-17T03:14:31.412Z,99914.86
2018-06-17T03:16:58.999Z,99917.23
2018-06-17T03:19:26.599Z,99913.70
2018-06-17T03:21:54.163Z,99916.72
2018-06-17T03:24:27.170Z,99904.76
2018-06-17T03:26:59.676Z,99904.95
2018-06-17T03:29:32.246Z,99903.60
2018-06-17T03:32:05.043Z,99900.73
2018-06-17T03:34:32.626Z,99907.97
2018-06-17T03:37:00.222Z,99905.63
2018-06-17T03:39:28.123Z,99908.33
2018-06-17T03:41:55.730Z,99908.33
2018-06-17T03:44:23.319Z,99915.40
2018-06-17T03:46:50.907Z,99918.09
2018-06-17T03:49:18.746Z,99920.79
2018-06-17T03:51:46.316Z,99916.75
2018-06-17T03:54:13.910Z,99918.74
2018-06-17T03:56:41.490Z,99914.21
2018-06-17T03:59:09.351Z,99917.40
2018-06-17T04:01:36.926Z,99920.62
2018-06-17T04:04:04.526Z,99923.31
2018-06-17T04:06:32.543Z,99922.65
2018-06-17T04:09:01.541Z,99927.02
2018-06-17T04:11:29.138Z,99928.02
2018-06-17T04:13:56.697Z,99924.83
2018-06-17T04:16:24.615Z,99930.03
2018-06-17T04:18:52.175Z,99936.28
2018-06-17T04:21:19.740Z,99932.56
2018-06-17T04:23:47.322Z,99937.60
2018-06-17T04:26:15.175Z,99935.77
2018-06-17T04:28:42.750Z,99937.97
2018-06-17T04:31:10.326Z,99931.56
2018-06-17T04:33:39.321Z,99939.45
2018-06-17T04:36:07.598Z,99927.33
2018-06-17T04:38:38.426Z,99923.81
2018-06-17T04:41:06.846Z,99922.30
2018-06-17T04:43:34.429Z,99921.44
2018-06-17T04:46:02.028Z,99925.16
2018-06-17T04:48:29.603Z,99925.66
2018-06-17T04:50:57.446Z,99928.19
2018-06-17T04:53:25.006Z,99930.69
2018-06-17T04:55:52.590Z,99926.66
2018-06-17T04:58:20.420Z,99917.03
2018-06-17T05:00:48.011Z,99914.50
2018-06-17T05:03:15.613Z,99915.53
2018-06-17T05:05:43.220Z,99919.41
2018-06-17T05:08:11.106Z,99919.25
2018-06-17T05:10:38.726Z,99915.70
2018-06-17T05:13:06.346Z,99910.81
2018-06-17T05:15:33.904Z,99909.47
2018-06-17T05:18:01.790Z,99927.66
2018-06-17T05:20:29.378Z,99912.66
2018-06-17T05:22:56.978Z,99923.25
2018-06-17T05:25:24.563Z,99923.06
2018-06-17T05:27:52.419Z,99920.86
2018-06-17T05:30:20.234Z,99921.03
2018-06-17T05:32:47.814Z,99929.78
2018-06-17T05:35:15.730Z,99930.48
2018-06-17T05:37:43.569Z,99930.97
2018-06-17T05:40:11.185Z,99924.52
2018-06-17T05:42:38.789Z,99932.78
2018-06-17T05:45:06.629Z,99922.32
2018-06-17T05:47:37.080Z,99923.17
2018-06-17T05:50:04.679Z,99918.60
2018-06-17T05:52:32.270Z,99921.80
2018-06-17T05:55:00.119Z,99918.89
2018-06-17T05:57:27.696Z,99928.02
2018-06-17T05:59:55.282Z,99915.99
2018-06-17T06:02:23.614Z,99930.67
2018-06-17T06:04:51.485Z,99922.58
2018-06-17T06:07:19.065Z,99932.02
2018-06-17T06:09:46.634Z,99934.89
2018-06-17T06:12:15.162Z,99940.28
2018-06-17T06:14:42.729Z,99944.13
2018-06-17T06:17:11.201Z,99940.73
2018-06-17T06:19:39.058Z,99940.91
2018-06-17T06:22:06.688Z,99936.32
2018-06-17T06:24:34.306Z,99929.40
2018-06-17T06:27:01.890Z,99932.09
2018-06-17T06:29:29.775Z,99942.73
2018-06-17T06:31:57.352Z,99938.84
2018-06-17T06:34:24.915Z,99942.84
2018-06-17T06:36:52.480Z,99944.19
2018-06-17T06:39:21.283Z,99947.55
2018-06-17T06:41:48.850Z,99947.70
2018-06-17T06:44:16.404Z,99948.20
2018-06-17T06:46:44.699Z,99949.72
2018-06-17T06:49:12.587Z,99956.47
2018-06-17T06:51:40.166Z,99955.97
2018-06-17T06:54:08.399Z,99953.06
2018-06-17T06:56:37.232Z,99943.61
2018-06-17T06:59:04.802Z,99951.72
2018-06-17T07:01:34.146Z,99954.08
2018-06-17T07:04:01.759Z,99959.64
2018-06-17T07:06:29.639Z,99955.72
2018-06-17T07:08:57.571Z,99957.55
2018-06-17T07:11:26.278Z,99960.73
2018-06-17T07:13:54.234Z,99966.46
2018-06-17T07:16:21.825Z,99967.11
2018-06-17T07:18:49.404Z,99968.80
2018-06-17T07:21:17.282Z,99969.49
2018-06-17T07:23:45.668Z,99971.50
2018-06-17T07:26:13.314Z,99970.78
2018-06-17T07:28:40.893Z,99972.47
2018-06-17T07:31:09.629Z,99975.09
2018-06-17T07:33:37.204Z,99983.22
2018-06-17T07:36:04.807Z,99979.16
2018-06-17T07:38:32.666Z,99979.16
2018-06-17T07:41:00.270Z,99984.93
2018-06-17T07:43:27.859Z,99983.91
2018-06-17T07:45:55.716Z,99982.22
2018-06-17T07:48:23.530Z,99991.64
2018-06-17T07:50:53.358Z,99988.92
2018-06-17T07:53:22.186Z,99988.88
2018-06-17T07:55:50.394Z,99993.24
2018-06-17T07:58:19.688Z,99996.77
2018-06-17T08:00:47.558Z,99993.07
2018-06-17T08:03:16.527Z,99987.66
2018-06-17T08:05:44.114Z,99991.02
2018-06-17T08:08:11.967Z,99996.22
2018-06-17T08:10:40.175Z,100005.55
2018-06-17T08:13:08.722Z,99989.86
2018-06-17T08:15:36.575Z,100001.00
2018-06-17T08:18:04.155Z,99994.56
2018-06-17T08:20:31.738Z,99988.78
2018-06-17T08:23:00.137Z,99988.06
2018-06-17T08:25:28.585Z,99981.60
2018-06-17T08:27:56.389Z,99991.22
2018-06-17T08:30:25.337Z,99993.40
2018-06-17T08:32:53.598Z,99989.52
2018-06-17T08:35:22.734Z,99993.40
2018-06-17T08:37:50.578Z,99989.02
2018-06-17T08:40:19.004Z,99992.90
2018-06-17T08:42:47.082Z,99987.48
2018-06-17T08:45:14.933Z,99985.81
2018-06-17T08:47:42.487Z,99994.25
2018-06-17T08:50:10.051Z,99989.32
2018-06-17T08:52:39.051Z,99987.91
2018-06-17T08:55:06.614Z,99990.12
2018-06-17T08:57:34.208Z,99994.66
2018-06-17T09:00:02.078Z,99994.98
2018-06-17T09:02:31.489Z,99997.16
2018-06-17T09:04:59.290Z,99991.25
2018-06-17T09:07:28.279Z,99994.98
2018-06-17T09:09:55.833Z,99997.69
2018-06-17T09:12:23.481Z,99994.28
2018-06-17T09:14:51.620Z,99995.61
2018-06-17T09:17:20.020Z,99995.55
2018-06-17T09:19:47.608Z,100002.30
2018-06-17T09:22:15.560Z,99988.38
2018-06-17T09:24:44.270Z,99998.86
2018-06-17T09:27:12.434Z,99997.51
2018-06-17T09:29:41.689Z,100002.21
2018-06-17T09:32:09.315Z,99996.27
2018-06-17T09:34:38.536Z,99985.92
2018-06-17T09:37:06.415Z,99989.95
2018-06-17T09:39:35.443Z,99989.24
2018-06-17T09:42:03.028Z,99985.66
2018-06-17T09:44:31.706Z,99990.51
2018-06-17T09:46:59.287Z,99982.21
2018-06-17T09:49:26.864Z,99982.53
2018-06-17T09:51:55.534Z,99983.71
2018-06-17T09:54:23.909Z,99995.69
2018-06-17T09:56:51.454Z,99980.41
2018-06-17T09:59:19.301Z,99999.66
2018-06-17T10:01:46.935Z,99992.39
2018-06-17T10:04:14.502Z,100004.90
2018-06-17T10:06:42.355Z,99994.89
2018-06-17T10:09:10.751Z,100005.40
2018-06-17T10:11:38.330Z,100013.02
2018-06-17T10:14:07.408Z,100007.14
2018-06-17T10:16:37.258Z,100008.52
2018-06-17T10:19:07.321Z,100012.94
2018-06-17T10:21:35.629Z,100010.91
2018-06-17T10:24:05.321Z,100018.70
2018-06-17T10:26:33.206Z,100023.09
2018-06-17T10:29:02.462Z,100020.20
2018-06-17T10:31:32.227Z,100015.44
2018-06-17T10:34:00.060Z,100016.94
2018-06-17T10:36:27.640Z,100021.17
2018-06-17T10:38:55.222Z,100020.85
2018-06-17T10:41:24.459Z,100010.52
2018-06-17T10:43:52.323Z,100020.67
2018-06-17T10:46:20.699Z,100018.79
2018-06-17T10:48:49.371Z,100024.20
2018-06-17T10:51:17.825Z,100024.20
2018-06-17T10:53:45.639Z,100024.91
2018-06-17T10:56:13.530Z,100018.14
2018-06-17T10:58:41.101Z,100039.10
2018-06-17T11:01:10.384Z,100031.51
2018-06-17T11:03:38.259Z,100024.41
2018-06-17T11:06:05.821Z,100030.66
2018-06-17T11:08:33.394Z,100039.98
2018-06-17T11:11:01.262Z,100032.89
2018-06-17T11:13:29.470Z,100031.04
2018-06-17T11:15:57.055Z,100024.59
2018-06-17T11:18:25.839Z,100025.77
2018-06-17T11:20:54.417Z,100034.72
2018-06-17T11:23:22.230Z,100029.95
2018-06-17T11:25:52.380Z,100037.08
2018-06-17T11:28:22.199Z,100037.39
2018-06-17T11:30:50.637Z,100040.42
2018-06-17T11:33:19.455Z,100035.72
2018-06-17T11:35:47.058Z,100033.01
2018-06-17T11:38:16.367Z,100041.45
2018-06-17T11:40:44.252Z,100033.01
2018-06-17T11:43:12.635Z,100031.66
2018-06-17T11:45:46.739Z,100033.83
2018-06-17T11:48:15.262Z,100033.51
2018-06-17T11:50:45.673Z,100045.31
2018-06-17T11:53:14.955Z,100038.69
2018-06-17T11:55:42.830Z,100033.95
2018-06-17T11:58:11.503Z,100037.80
2018-06-17T12:00:39.303Z,100043.69
2018-06-17T12:03:08.258Z,100046.87
2018-06-17T12:05:35.826Z,100043.34
2018-06-17T12:08:04.132Z,100055.70
2018-06-17T12:10:31.999Z,100050.31
2018-06-17T12:13:00.912Z,100044.25
2018-06-17T12:15:28.487Z,100047.34
2018-06-17T12:17:57.282Z,100047.84
2018-06-17T12:20:26.084Z,100049.02
2018-06-17T12:22:53.658Z,100050.52
2018-06-17T12:25:21.589Z,100050.20
2018-06-17T12:27:49.149Z,100054.94
2018-06-17T12:30:17.428Z,100054.61
2018-06-17T12:32:45.523Z,100051.58
2018-06-17T12:35:13.088Z,100056.30
2018-06-17T12:37:40.663Z,100061.91
2018-06-17T12:40:10.046Z,100063.63
2018-06-17T12:42:38.463Z,100062.33
2018-06-17T12:45:07.069Z,100062.83
2018-06-17T12:47:36.174Z,100065.53
2018-06-17T12:50:03.742Z,100064.00
2018-06-17T12:52:31.341Z,100069.21
2018-06-17T12:54:59.333Z,100066.18
2018-06-17T12:57:28.513Z,100065.15
2018-06-17T12:59:57.406Z,100065.68
2018-06-17T13:02:26.375Z,100071.59
2018-06-17T13:04:55.505Z,100078.05
2018-06-17T13:07:24.679Z,100074.69
2018-06-17T13:09:52.539Z,100073.83
2018-06-17T13:12:22.474Z,100077.39
2018-06-17T13:14:50.036Z,100077.89
2018-06-17T13:17:19.919Z,100084.81
2018-06-17T13:19:47.498Z,100074.30
2018-06-17T13:22:18.703Z,100080.19
2018-06-17T13:24:47.806Z,100076.13
2018-06-17T13:27:15.995Z,100068.69
2018-06-17T13:29:43.549Z,100076.10
2018-06-17T13:32:12.004Z,100080.96
2018-06-17T13:34:40.182Z,100080.91
2018-06-17T13:37:07.761Z,100084.77
2018-06-17T13:39:37.714Z,100074.86
2018-06-17T13:42:06.435Z,100078.37
2018-06-17T13:44:35.278Z,100084.75
2018-06-17T13:47:05.149Z,100085.08
2018-06-17T13:49:33.729Z,100084.75
2018-06-17T13:52:01.347Z,100092.23
2018-06-17T13:54:29.188Z,100089.70
2018-06-17T13:56:56.751Z,100094.80
2018-06-17T13:59:24.683Z,100092.59
2018-06-17T14:01:58.549Z,100093.63
2018-06-17T14:04:27.458Z,100091.44
2018-06-17T14:06:57.133Z,100099.25
2018-06-17T14:09:26.301Z,100096.39
2018-06-17T14:11:57.266Z,100094.89
2018-06-17T14:14:26.523Z,100090.53
2018-06-17T14:16:54.378Z,100087.17
2018-06-17T14:19:22.601Z,100091.39
2018-06-17T14:21:50.457Z,100093.39
2018-06-17T14:24:18.326Z,100094.71
2018-06-17T14:26:47.526Z,100093.16
2018-06-17T14:29:17.208Z,100103.78
2018-06-17T14:31:47.278Z,100099.83
2018-06-17T14:34:15.818Z,100100.30
2018-06-17T14:36:48.291Z,100097.23
2018-06-17T14:39:19.750Z,100100.59
2018-06-17T14:41:53.775Z,100101.95
2018-06-17T14:44:26.455Z,100094.85
2018-06-17T14:46:59.321Z,100093.50
2018-06-17T14:49:32.968Z,100095.35
2018-06-17T14:53:08.273Z,100096.20
2018-06-17T14:55:36.698Z,100091.26
2018-06-17T14:58:06.211Z,100100.35
2018-06-17T15:00:33.793Z,100109.27
2018-06-17T15:03:01.360Z,100106.68
2018-06-17T15:05:30.850Z,100100.83
2018-06-17T15:07:58.504Z,100101.58
2018-06-17T15:10:27.200Z,100099.80
2018-06-17T15:12:56.411Z,100106.54
2018-06-17T15:15:25.330Z,100099.19
2018-06-17T15:17:53.573Z,100095.91
2018-06-17T15:20:21.483Z,100096.65
2018-06-17T15:22:49.802Z,100095.61
2018-06-17T15:25:17.493Z,100098.64
2018-06-17T15:27:46.230Z,100103.53
2018-06-17T15:30:13.805Z,100108.45
2018-06-17T15:32:46.488Z,100107.50
2018-06-17T15:35:20.330Z,100104.43
2018-06-17T15:37:53.530Z,100109.75
2018-06-17T15:40:27.998Z,100108.93
2018-06-17T15:42:57.038Z,100114.92
2018-06-17T15:45:28.288Z,100121.39
2018-06-17T15:47:56.811Z,100118.42
2018-06-17T15:50:26.490Z,100111.68
2018-06-17T15:52:56.886Z,100106.19
2018-06-17T15:55:32.211Z,100107.14
2018-06-17T15:57:59.809Z,100110.12
2018-06-17T16:00:29.659Z,100103.45
2018-06-17T16:02:58.279Z,100108.55
2018-06-17T16:05:27.220Z,100100.09
2018-06-17T16:07:54.774Z,100098.06
2018-06-17T16:10:23.536Z,100106.40
2018-06-17T16:12:57.224Z,100095.20
2018-06-17T16:15:31.442Z,100103.72
2018-06-17T16:18:07.807Z,100102.45
2018-06-17T16:20:41.120Z,100104.55
2018-06-17T16:23:16.560Z,100108.82
2018-06-17T16:25:46.429Z,100113.05
2018-06-17T16:28:16.266Z,100111.05
2018-06-17T16:30:44.449Z,100118.50
2018-06-17T16:33:13.289Z,100119.38
2018-06-17T16:35:43.098Z,100120.27
2018-06-17T16:38:11.421Z,100125.35
2018-06-17T16:40:40.658Z,100127.41
2018-06-17T16:43:08.539Z,100124.23
2018-06-17T16:45:36.119Z,100123.58
2018-06-17T16:48:03.710Z,100127.66
2018-06-17T16:50:34.474Z,100133.09
2018-06-17T16:53:07.222Z,100129.86
2018-06-17T16:55:41.250Z,100129.86
2018-06-17T16:58:14.347Z,100134.11
2018-06-17T17:00:42.883Z,100131.72
2018-06-17T17:03:11.089Z,100129.88
2018-06-17T17:05:40.114Z,100123.10
2018-06-17T17:08:07.666Z,100124.78
2018-06-17T17:10:36.226Z,100129.49
2018-06-17T17:13:04.126Z,100134.91
2018-06-17T17:15:32.688Z,100135.77
2018-06-17T17:18:01.287Z,100140.16
2018-06-17T17:20:29.132Z,100137.94
2018-06-17T17:22:56.708Z,100138.47
2018-06-17T17:25:24.274Z,100139.30
2018-06-17T17:27:52.139Z,100136.80
2018-06-17T17:30:22.510Z,100147.62
2018-06-17T17:32:55.330Z,100149.16
2018-06-17T17:35:28.266Z,100155.59
2018-06-17T17:38:00.778Z,100159.33
2018-06-17T17:40:34.182Z,100163.20
2018-06-17T17:45:50.513Z,100173.25
2018-06-17T17:48:18.966Z,100179.04
2018-06-17T17:50:47.146Z,100177.53
2018-06-17T17:53:14.727Z,100176.34
2018-06-17T17:55:43.590Z,100181.44
2018-06-17T17:58:12.089Z,100176.39
2018-06-17T18:00:42.586Z,100175.71
2018-06-17T18:03:12.788Z,100178.41
2018-06-17T18:05:40.365Z,100183.50
2018-06-17T18:08:07.915Z,100178.29
2018-06-17T18:10:37.569Z,100189.61
2018-06-17T18:13:06.279Z,100187.94
2018-06-17T18:15:35.050Z,100191.02
2018-06-17T18:18:04.117Z,100187.62
2018-06-17T18:20:33.483Z,100190.70
2018-06-17T18:23:01.050Z,100188.33
2018-06-17T18:25:35.590Z,100188.53
2018-06-17T18:28:08.223Z,100190.38
2018-06-17T18:30:40.723Z,100186.16
2018-06-17T18:33:14.422Z,100183.33
2018-06-17T18:36:18.285Z,100183.17
2018-06-17T18:38:47.454Z,100180.14
2018-06-17T18:41:16.837Z,100174.05
2018-06-17T18:43:46.587Z,100174.90
2018-06-17T18:46:15.907Z,100172.89
2018-06-17T18:48:52.089Z,100172.53
2018-06-17T18:51:21.348Z,100170.84
2018-06-17T18:53:49.235Z,100175.44
2018-06-17T18:56:17.408Z,100170.72
2018-06-17T18:58:46.086Z,100173.92
2018-06-17T19:01:13.669Z,100167.86
2018-06-17T19:03:43.128Z,100177.50
2018-06-17T19:06:12.600Z,100177.66
2018-06-17T19:08:45.607Z,100172.78
2018-06-17T19:11:18.249Z,100177.34
2018-06-17T19:13:51.580Z,100182.91
2018-06-17T19:16:24.310Z,100185.48
2018-06-17T19:18:52.202Z,100188.86
2018-06-17T19:21:20.500Z,100186.19
2018-06-17T19:23:48.210Z,100183.16
2018-06-17T19:26:16.106Z,100189.42
2018-06-17T19:28:43.736Z,100198.89
2018-06-17T19:31:12.414Z,100198.70
2018-06-17T19:33:40.494Z,100206.31
2018-06-17T19:36:08.885Z,100208.89
2018-06-17T19:38:37.297Z,100210.08
2018-06-17T19:41:05.213Z,100214.99
2018-06-17T19:43:32.816Z,100220.56
2018-06-17T19:46:00.664Z,100219.05
2018-06-17T19:48:28.549Z,100219.24
2018-06-17T19:51:01.057Z,100224.81
2018-06-17T19:53:33.721Z,100223.30
2018-06-17T19:56:07.109Z,100221.61
2018-06-17T19:58:40.319Z,100224.16
2018-06-17T20:01:09.449Z,100223.49
2018-06-17T20:03:38.643Z,100229.59
2018-06-17T20:06:07.838Z,100227.54
2018-06-17T20:08:36.405Z,100230.08
2018-06-17T20:11:04.392Z,100235.67
2018-06-17T20:13:35.234Z,100232.12
2018-06-17T20:16:02.810Z,100233.63
2018-06-17T20:18:32.617Z,100241.73
2018-06-17T20:21:01.555Z,100246.81
2018-06-17T20:23:33.882Z,100243.78
2018-06-17T20:26:01.717Z,100252.41
2018-06-17T20:28:33.366Z,100247.50
2018-06-17T20:31:07.106Z,100248.85
2018-06-17T20:33:41.465Z,100248.19
2018-06-17T20:36:15.973Z,100248.02
2018-06-17T20:38:49.238Z,100253.92
2018-06-17T20:41:23.079Z,100256.63
2018-06-17T20:43:58.667Z,100257.31
2018-06-17T20:46:27.386Z,100265.94
2018-06-17T20:48:56.238Z,100265.24
2018-06-17T20:51:26.526Z,100269.62
2018-06-17T20:53:54.111Z,100271.34
2018-06-17T20:56:23.138Z,100277.59
2018-06-17T20:58:52.622Z,100273.70
2018-06-17T21:01:22.238Z,100276.07
2018-06-17T21:03:56.415Z,100274.39
2018-06-17T21:06:24.274Z,100281.30
2018-06-17T21:08:53.401Z,100282.48
2018-06-17T21:11:23.098Z,100284.52
2018-06-17T21:13:51.452Z,100279.28
2018-06-17T21:16:19.025Z,100276.73
2018-06-17T21:18:52.362Z,100279.62
2018-06-17T21:21:25.278Z,100279.62
2018-06-17T21:24:01.023Z,100288.75
2018-06-17T21:26:33.560Z,100285.19
2018-06-17T21:29:02.843Z,100291.28
2018-06-17T21:31:30.458Z,100291.77
2018-06-17T21:34:01.815Z,100291.11
2018-06-17T21:36:31.225Z,100291.27
2018-06-17T21:38:59.404Z,100285.86
2018-06-17T21:41:27.849Z,100290.59
2018-06-17T21:43:58.478Z,100291.61
2018-06-17T21:46:29.658Z,100293.98
2018-06-17T21:48:57.454Z,100302.73
2018-06-17T21:51:25.345Z,100295.31
2018-06-17T21:53:53.958Z,100300.72
2018-06-17T21:56:22.090Z,100304.77
2018-06-17T21:58:51.521Z,100303.94
2018-06-17T22:01:21.768Z,100304.09
2018-06-17T22:03:50.168Z,100296.16
2018-06-17T22:06:18.059Z,100293.09
2018-06-17T22:08:50.700Z,100298.16
2018-06-17T22:11:25.325Z,100292.42
2018-06-17T22:13:58.138Z,100285.16
2018-06-17T22:16:30.778Z,100288.18
2018-06-17T22:18:59.398Z,100280.27
2018-06-17T22:21:28.628Z,100290.73
2018-06-17T22:23:56.217Z,100286.31
2018-06-17T22:26:24.069Z,100281.59
2018-06-17T22:28:52.226Z,100278.23
2018-06-17T22:31:19.808Z,100279.93
2018-06-17T22:33:47.654Z,100283.12
2018-06-17T22:36:15.230Z,100284.63
2018-06-17T22:38:43.445Z,100285.64
2018-06-17T22:41:11.295Z,100286.33
2018-06-17T22:43:38.873Z,100287.34
2018-06-17T22:46:06.475Z,100288.35
2018-06-17T22:48:34.319Z,100286.30
2018-06-17T22:51:03.336Z,100284.95
2018-06-17T22:53:31.741Z,100283.27
2018-06-17T22:55:59.333Z,100280.91
2018-06-17T22:58:32.269Z,100286.80
2018-06-17T23:01:06.446Z,100290.19
2018-06-17T23:03:40.119Z,100291.69
2018-06-17T23:06:12.647Z,100285.95
2018-06-17T23:08:45.310Z,100277.19
2018-06-17T23:11:13.174Z,100283.60
2018-06-17T23:13:41.465Z,100281.55
2018-06-17T23:16:09.049Z,100282.07
2018-06-17T23:18:37.374Z,100276.16
2018-06-17T23:21:04.970Z,100278.52
2018-06-17T23:23:32.529Z,100275.81
2018-06-17T23:26:00.614Z,100286.95
2018-06-17T23:28:28.225Z,100289.64
2018-06-17T23:30:55.865Z,100293.02
2018-06-17T23:33:23.429Z,100296.73
2018-06-17T23:35:51.278Z,100296.73
2018-06-17T23:38:20.218Z,100294.19
2018-06-17T23:40:47.779Z,100294.72
2018-06-17T23:43:15.346Z,100301.95
2018-06-17T23:45:48.319Z,100307.87
2018-06-17T23:48:20.870Z,100308.88
2018-06-17T23:50:53.900Z,100297.39
2018-06-17T23:53:26.702Z,100299.59
2018-06-17T23:55:59.350Z,100288.95
2018-06-17T23:58:26.915Z,100289.48
